Pagrindinis puslapis
METAR-TAF:

METAR-TAF

Oro uostai :

Vesterosas, Švedija

platuma: 59-35N, ilguma: 016-38E, Aukštis: 6 m

Dabartinis oras

Ataskaita buvo paskelbta 32 minutes, ne 07:20 UTC
Vėjas 7 kt iš Šiaurės/Šiaurės Vakarų
Temperatūra -6°C
Drėgmė 86%
Slėgis 1011 hPa
Matomumas 10 km arba daugiau

METAR: ESOW 100720Z AUTO 34007KT 9999 BKN034/// OVC043/// M06/M08 Q1011

Laikas: 08:52 (07:52 UTC)

Prognozė

Ataskaita buvo paskelbta 18 valandos ir 31 minutes, ne 13:21 UTC
Prognozė galioja nuo 09 metu 13 UTC su 09 metu 15 UTC
Vėjas 6 kt iš Šiaurės/Šiaurės Vakarų
Matomumas 10 km arba daugiau
Su prošvaistėmis ne aukštis 2000 ft
Laikinai
nuo 09 metu 13 UTC su 09 metu 15 UTC
Su prošvaistėmis ne aukštis 700 ft

TAF: ESOW 091321Z 0913/0915 34006KT 9999 BKN020 TEMPO 0913/0915 BKN007

Orai ataskaitas ir orų prognozės (METAR, TAF).

turimą stotys yra geltonos ir raudonos taškus žemėlapyje.

Perkelti pele per norėdami pamatyti stoties vardą.

Tada spustelėkite, norėdami matyti oro stebėjimo ir prognozės.

Norėdami pakeisti žemėlapį: spustelėkite ant žalios mygtukų su juodo kryžiaus žemyn,; žalią mygtuką su brūkšneliu, jei norite nutolinti; arba žalių rodyklių gretimoms žemėlapius.


METAR-TAF: